createdAt,value
2022-09-25T00:00:57.106Z,11.38
2022-09-25T00:03:25.260Z,11.22
2022-09-25T00:05:52.209Z,11.10
2022-09-25T00:08:19.329Z,11.29
2022-09-25T00:10:47.640Z,11.34
2022-09-25T00:13:15.104Z,11.39
2022-09-25T00:15:53.112Z,11.54
2022-09-25T00:18:40.390Z,11.53
2022-09-25T00:21:07.753Z,11.64
2022-09-25T00:23:34.455Z,11.64
2022-09-25T00:26:05.920Z,11.68
2022-09-25T00:28:32.407Z,11.57
2022-09-25T00:30:59.405Z,11.55
2022-09-25T00:33:25.987Z,11.58
2022-09-25T00:35:52.433Z,11.60
2022-09-25T00:38:18.979Z,11.70
2022-09-25T00:40:45.507Z,11.65
2022-09-25T00:43:15.688Z,11.57
2022-09-25T00:45:42.994Z,11.69
2022-09-25T00:48:15.313Z,11.64
2022-09-25T00:50:49.578Z,11.77
2022-09-25T00:53:25.611Z,11.64
2022-09-25T00:55:52.298Z,11.81
2022-09-25T00:58:21.522Z,11.83
2022-09-25T01:00:48.126Z,11.87
2022-09-25T01:03:16.526Z,11.69
2022-09-25T01:05:44.302Z,11.62
2022-09-25T01:08:12.534Z,11.81
2022-09-25T01:10:39.269Z,11.54
2022-09-25T01:13:06.609Z,11.69
2022-09-25T01:15:35.819Z,11.56
2022-09-25T01:18:17.660Z,11.57
2022-09-25T01:20:46.835Z,11.50
2022-09-25T01:23:13.286Z,11.48
2022-09-25T01:25:50.098Z,11.55
2022-09-25T01:28:35.019Z,11.48
2022-09-25T01:31:09.419Z,11.48
2022-09-25T01:33:41.770Z,11.48
2022-09-25T01:36:14.921Z,11.50
2022-09-25T01:38:45.305Z,11.46
2022-09-25T01:41:14.177Z,11.69
2022-09-25T01:43:44.372Z,11.89
2022-09-25T01:46:19.146Z,11.92
2022-09-25T01:48:47.580Z,12.09
2022-09-25T01:51:16.960Z,12.06
2022-09-25T01:53:54.751Z,11.98
2022-09-25T01:56:41.446Z,11.88
2022-09-25T01:59:10.904Z,11.84
2022-09-25T02:01:41.701Z,11.79
2022-09-25T02:04:10.436Z,11.78
2022-09-25T02:06:39.157Z,11.91
2022-09-25T02:09:16.325Z,11.99
2022-09-25T02:11:45.558Z,12.16
2022-09-25T02:14:15.581Z,12.76
2022-09-25T02:16:44.723Z,12.64
2022-09-25T02:19:30.727Z,12.45
2022-09-25T02:22:00.035Z,11.97
2022-09-25T02:24:26.457Z,12.21
2022-09-25T02:26:53.172Z,12.07
2022-09-25T02:29:19.895Z,12.13
2022-09-25T02:31:53.605Z,12.32
2022-09-25T02:34:20.528Z,12.46
2022-09-25T02:36:47.314Z,12.46
2022-09-25T02:39:15.905Z,12.52
2022-09-25T02:41:42.329Z,12.27
2022-09-25T02:44:15.522Z,12.23
2022-09-25T02:46:41.924Z,12.44
2022-09-25T02:49:16.375Z,12.36
2022-09-25T02:52:01.313Z,12.41
2022-09-25T02:54:33.443Z,12.35
2022-09-25T02:57:14.272Z,12.43
2022-09-25T02:59:44.954Z,12.37
2022-09-25T03:02:12.134Z,12.35
2022-09-25T03:04:39.600Z,12.19
2022-09-25T03:07:06.503Z,12.20
2022-09-25T03:09:35.561Z,12.35
2022-09-25T03:12:03.373Z,12.43
2022-09-25T03:14:29.839Z,12.35
2022-09-25T03:16:57.849Z,12.42
2022-09-25T03:19:26.779Z,12.33
2022-09-25T03:21:54.162Z,12.31
2022-09-25T03:24:20.747Z,12.27
2022-09-25T03:26:47.553Z,12.26
2022-09-25T03:29:14.762Z,12.05
2022-09-25T03:31:42.585Z,12.14
2022-09-25T03:34:09.520Z,12.11
2022-09-25T03:36:36.315Z,12.09
2022-09-25T03:39:03.081Z,12.29
2022-09-25T03:41:31.125Z,12.27
2022-09-25T03:43:57.623Z,12.27
2022-09-25T03:46:28.375Z,12.33
2022-09-25T03:48:55.394Z,12.34
2022-09-25T03:51:21.888Z,12.22
2022-09-25T03:53:48.801Z,12.28
2022-09-25T03:56:20.511Z,12.52
2022-09-25T03:58:48.253Z,12.54
2022-09-25T04:01:15.587Z,12.45
2022-09-25T04:03:47.206Z,12.52
2022-09-25T04:06:18.333Z,12.52
2022-09-25T04:08:45.687Z,12.53
2022-09-25T04:11:12.493Z,12.66
2022-09-25T04:13:41.884Z,12.67
2022-09-25T04:16:08.506Z,12.61
2022-09-25T04:18:35.719Z,12.70
2022-09-25T04:21:04.248Z,12.58
2022-09-25T04:23:30.866Z,12.60
2022-09-25T04:25:57.497Z,12.52
2022-09-25T04:28:24.472Z,12.54
2022-09-25T04:30:50.970Z,12.47
2022-09-25T04:33:36.494Z,12.53
2022-09-25T04:36:03.458Z,12.57
2022-09-25T04:38:32.905Z,12.46
2022-09-25T04:41:02.878Z,12.39
2022-09-25T04:43:29.937Z,12.39
2022-09-25T04:46:00.222Z,12.52
2022-09-25T04:48:26.679Z,12.56
2022-09-25T04:50:53.146Z,12.45
2022-09-25T04:53:19.690Z,12.53
2022-09-25T04:55:47.287Z,12.62
2022-09-25T04:58:13.754Z,12.67
2022-09-25T05:00:41.008Z,12.81
2022-09-25T05:03:07.593Z,12.65
2022-09-25T05:05:35.207Z,12.59
2022-09-25T05:08:02.345Z,12.60
2022-09-25T05:10:30.220Z,12.63
2022-09-25T05:12:58.194Z,12.63
2022-09-25T05:15:25.203Z,12.64
2022-09-25T05:17:59.243Z,12.55
2022-09-25T05:20:26.037Z,12.52
2022-09-25T05:22:58.869Z,12.56
2022-09-25T05:25:26.539Z,12.55
2022-09-25T05:27:57.353Z,12.56
2022-09-25T05:30:24.673Z,12.55
2022-09-25T05:32:51.634Z,12.69
2022-09-25T05:35:22.613Z,12.71
2022-09-25T05:37:49.087Z,12.78
2022-09-25T05:40:16.131Z,12.94
2022-09-25T05:42:46.041Z,12.78
2022-09-25T05:45:12.750Z,12.71
2022-09-25T05:47:39.933Z,12.74
2022-09-25T05:50:06.706Z,12.75
2022-09-25T05:52:33.130Z,12.74
2022-09-25T05:54:59.669Z,12.96
2022-09-25T05:57:26.123Z,12.84
2022-09-25T05:59:52.902Z,12.70
2022-09-25T06:02:19.370Z,12.89
2022-09-25T06:04:45.813Z,12.89
2022-09-25T06:07:12.295Z,12.93
2022-09-25T06:09:38.758Z,12.76
2022-09-25T06:12:06.582Z,12.74
2022-09-25T06:14:35.315Z,12.84
2022-09-25T06:17:01.820Z,12.84
2022-09-25T06:19:29.742Z,12.84
2022-09-25T06:21:57.529Z,12.81
2022-09-25T06:24:24.145Z,12.84
2022-09-25T06:26:50.746Z,12.69
2022-09-25T06:29:17.215Z,12.80
2022-09-25T06:31:43.695Z,12.95
2022-09-25T06:34:12.452Z,13.01
2022-09-25T06:36:39.282Z,12.98
2022-09-25T06:39:06.093Z,13.08
2022-09-25T06:41:32.571Z,13.05
2022-09-25T06:44:01.862Z,13.00
2022-09-25T06:46:28.293Z,12.97
2022-09-25T06:48:55.969Z,13.01
2022-09-25T06:51:22.793Z,13.18
2022-09-25T06:53:53.199Z,12.96
2022-09-25T06:56:20.213Z,12.99
2022-09-25T06:58:47.631Z,12.91
2022-09-25T07:01:14.268Z,13.02
2022-09-25T07:03:47.288Z,13.08
2022-09-25T07:06:24.298Z,13.13
2022-09-25T07:08:50.928Z,13.00
2022-09-25T07:11:18.857Z,13.13
2022-09-25T07:13:45.678Z,13.03
2022-09-25T07:16:14.083Z,13.06
2022-09-25T07:18:40.819Z,13.26
2022-09-25T07:21:08.701Z,13.10
2022-09-25T07:23:35.316Z,13.13
2022-09-25T07:26:06.271Z,13.08
2022-09-25T07:28:32.842Z,12.99
2022-09-25T07:30:59.352Z,13.11
2022-09-25T07:33:25.879Z,13.16
2022-09-25T07:35:52.394Z,13.05
2022-09-25T07:38:19.523Z,12.97
2022-09-25T07:40:46.535Z,13.27
2022-09-25T07:43:13.046Z,13.16
2022-09-25T07:45:39.498Z,13.09
2022-09-25T07:48:06.329Z,13.22
2022-09-25T07:50:33.406Z,13.24
2022-09-25T07:52:59.919Z,13.33
2022-09-25T07:55:28.382Z,13.25
2022-09-25T07:57:58.116Z,13.35
2022-09-25T08:00:24.718Z,13.52
2022-09-25T08:02:59.262Z,13.19
2022-09-25T08:05:26.457Z,13.31
2022-09-25T08:07:53.178Z,13.29
2022-09-25T08:10:20.059Z,13.50
2022-09-25T08:12:46.506Z,13.48
2022-09-25T08:15:14.814Z,13.46
2022-09-25T08:17:41.473Z,13.35
2022-09-25T08:20:08.424Z,13.44
2022-09-25T08:22:35.068Z,13.44
2022-09-25T08:25:04.234Z,13.48
2022-09-25T08:27:31.488Z,13.51
2022-09-25T08:29:58.042Z,13.51
2022-09-25T08:32:24.550Z,13.55
2022-09-25T08:34:51.024Z,13.58
2022-09-25T08:37:18.463Z,13.59
2022-09-25T08:39:44.989Z,13.69
2022-09-25T08:42:18.313Z,13.68
2022-09-25T08:45:09.004Z,13.61
2022-09-25T08:47:53.049Z,13.48
2022-09-25T08:50:21.197Z,13.62
2022-09-25T08:52:52.733Z,13.59
2022-09-25T08:55:24.022Z,13.57
2022-09-25T08:57:51.556Z,13.58
2022-09-25T09:00:20.612Z,13.58
2022-09-25T09:02:51.335Z,13.49
2022-09-25T09:05:20.695Z,13.56
2022-09-25T09:07:50.415Z,13.82
2022-09-25T09:10:23.089Z,13.82
2022-09-25T09:13:12.540Z,13.89
2022-09-25T09:15:57.470Z,13.94
2022-09-25T09:18:25.526Z,14.04
2022-09-25T09:20:51.960Z,13.97
2022-09-25T09:23:20.263Z,13.91
2022-09-25T09:25:46.678Z,14.05
2022-09-25T09:28:13.095Z,13.61
2022-09-25T09:30:45.743Z,13.74
2022-09-25T09:33:20.742Z,13.81
2022-09-25T09:35:53.593Z,13.95
2022-09-25T09:38:28.274Z,14.08
2022-09-25T09:41:01.694Z,13.97
2022-09-25T09:43:30.030Z,14.19
2022-09-25T09:46:05.345Z,14.43
2022-09-25T09:48:44.189Z,14.78
2022-09-25T09:51:16.833Z,14.34
2022-09-25T09:54:06.284Z,14.71
2022-09-25T09:56:35.409Z,14.41
2022-09-25T09:59:03.757Z,14.35
2022-09-25T10:01:41.285Z,14.21
2022-09-25T10:04:10.521Z,14.52
2022-09-25T10:06:44.841Z,15.02
2022-09-25T10:09:15.426Z,15.01
2022-09-25T10:11:43.362Z,15.02
2022-09-25T10:14:14.510Z,15.01
2022-09-25T10:16:41.106Z,15.07
2022-09-25T10:19:13.439Z,15.31
2022-09-25T10:21:46.357Z,15.72
2022-09-25T10:24:32.730Z,15.64
2022-09-25T10:27:19.181Z,15.66
2022-09-25T10:29:45.609Z,15.85
2022-09-25T10:32:12.147Z,15.61
2022-09-25T10:34:40.195Z,15.60
2022-09-25T10:37:20.129Z,15.83
2022-09-25T10:40:00.339Z,15.82
2022-09-25T10:42:40.992Z,16.10
2022-09-25T10:45:36.887Z,15.82
2022-09-25T10:48:41.436Z,15.96
2022-09-25T10:51:09.965Z,16.09
2022-09-25T10:53:36.435Z,16.03
2022-09-25T10:56:12.618Z,15.88
2022-09-25T10:58:56.449Z,15.90
2022-09-25T11:01:30.911Z,15.91
2022-09-25T11:03:58.222Z,15.81
2022-09-25T11:06:24.700Z,15.99
2022-09-25T11:09:03.403Z,16.20
2022-09-25T11:11:29.927Z,16.35
2022-09-25T11:13:58.270Z,16.15
2022-09-25T11:16:45.398Z,16.59
2022-09-25T11:19:18.446Z,16.58
2022-09-25T11:22:00.358Z,16.47
2022-09-25T11:24:50.598Z,16.82
2022-09-25T11:27:31.278Z,16.68
2022-09-25T11:30:03.817Z,16.70
2022-09-25T11:32:30.264Z,16.17
2022-09-25T11:35:03.292Z,16.09
2022-09-25T11:37:48.422Z,15.99
2022-09-25T11:40:45.760Z,16.13
2022-09-25T11:43:15.029Z,15.90
2022-09-25T11:45:47.860Z,15.94
2022-09-25T11:48:24.806Z,16.53
2022-09-25T11:50:54.031Z,16.19
2022-09-25T11:53:24.191Z,15.75
2022-09-25T11:56:06.759Z,15.67
2022-09-25T11:58:43.438Z,15.33
2022-09-25T12:01:09.928Z,15.65
2022-09-25T12:03:46.570Z,15.56
2022-09-25T12:06:22.077Z,15.12
2022-09-25T12:08:50.488Z,15.68
2022-09-25T12:11:45.211Z,16.03
2022-09-25T12:14:31.729Z,15.83
2022-09-25T12:16:58.195Z,16.19
2022-09-25T12:19:33.580Z,16.22
2022-09-25T12:22:14.976Z,16.47
2022-09-25T12:24:44.420Z,16.33
2022-09-25T12:27:10.940Z,17.03
2022-09-25T12:29:50.104Z,17.33
2022-09-25T12:32:26.496Z,17.19
2022-09-25T12:35:10.897Z,17.57
2022-09-25T12:37:45.230Z,17.10
2022-09-25T12:40:18.089Z,17.17
2022-09-25T12:42:44.556Z,17.27
2022-09-25T12:45:24.667Z,17.44
2022-09-25T12:47:54.118Z,17.22
2022-09-25T12:50:22.400Z,17.57
2022-09-25T12:52:51.687Z,17.40
2022-09-25T12:55:18.781Z,16.63
2022-09-25T12:57:48.287Z,16.54
2022-09-25T13:00:20.263Z,17.07
2022-09-25T13:02:53.540Z,17.19
2022-09-25T13:05:22.006Z,17.56
2022-09-25T13:08:10.306Z,17.58
2022-09-25T13:10:43.130Z,17.08
2022-09-25T13:13:13.204Z,16.62
2022-09-25T13:15:42.355Z,17.36
2022-09-25T13:18:16.014Z,17.49
2022-09-25T13:20:53.058Z,17.41
2022-09-25T13:23:40.601Z,17.43
2022-09-25T13:26:14.434Z,16.79
2022-09-25T13:28:47.778Z,16.82
2022-09-25T13:31:22.295Z,16.99
2022-09-25T13:33:50.977Z,16.65
2022-09-25T13:36:24.338Z,16.62
2022-09-25T13:39:12.505Z,16.45
2022-09-25T13:41:48.566Z,16.76
2022-09-25T13:44:34.178Z,16.80
2022-09-25T13:47:19.113Z,16.75
2022-09-25T13:50:04.647Z,16.93
2022-09-25T13:52:40.223Z,17.31
2022-09-25T13:55:20.945Z,17.37
2022-09-25T13:57:59.877Z,17.06
2022-09-25T14:00:49.823Z,16.99
2022-09-25T14:03:32.055Z,16.87
2022-09-25T14:05:59.285Z,17.07
2022-09-25T14:08:27.761Z,16.91
2022-09-25T14:10:55.803Z,16.93
2022-09-25T14:13:23.570Z,17.01
2022-09-25T14:15:50.767Z,17.29
2022-09-25T14:18:25.669Z,17.24
2022-09-25T14:20:57.213Z,17.33
2022-09-25T14:23:27.070Z,17.25
2022-09-25T14:26:00.691Z,17.04
2022-09-25T14:28:28.748Z,17.22
2022-09-25T14:31:06.332Z,17.15
2022-09-25T14:33:43.850Z,17.10
2022-09-25T14:36:13.310Z,17.39
2022-09-25T14:38:39.731Z,17.22
2022-09-25T14:41:12.184Z,17.14
2022-09-25T14:43:54.653Z,17.07
2022-09-25T14:46:22.012Z,17.28
2022-09-25T14:48:57.929Z,16.71
2022-09-25T14:51:26.124Z,17.19
2022-09-25T14:54:02.051Z,17.24
2022-09-25T14:56:31.678Z,16.86
2022-09-25T14:58:59.407Z,16.94
2022-09-25T15:01:27.780Z,16.84
2022-09-25T15:03:56.306Z,16.99
2022-09-25T15:06:24.793Z,16.69
2022-09-25T15:08:51.246Z,16.90
2022-09-25T15:11:19.108Z,16.79
2022-09-25T15:13:46.008Z,16.76
2022-09-25T15:16:38.201Z,16.42
2022-09-25T15:19:10.220Z,16.51
2022-09-25T15:21:37.054Z,16.99
2022-09-25T15:24:05.150Z,17.15
2022-09-25T15:26:32.438Z,16.58
2022-09-25T15:28:58.945Z,16.60
2022-09-25T15:31:25.664Z,16.47
2022-09-25T15:34:03.384Z,16.28
2022-09-25T15:36:29.934Z,16.28
2022-09-25T15:39:00.780Z,16.35
2022-09-25T15:41:27.570Z,16.12
2022-09-25T15:44:11.103Z,15.87
2022-09-25T15:46:39.673Z,15.66
2022-09-25T15:49:06.732Z,15.75
2022-09-25T15:51:34.626Z,15.66
2022-09-25T15:54:02.880Z,15.55
2022-09-25T15:56:30.890Z,15.61
2022-09-25T15:59:00.234Z,15.74
2022-09-25T16:01:47.321Z,15.45
2022-09-25T16:04:38.648Z,15.48
2022-09-25T16:07:22.075Z,15.36
2022-09-25T16:09:48.508Z,15.27
2022-09-25T16:12:22.662Z,15.14
2022-09-25T16:14:50.211Z,15.29
2022-09-25T16:17:22.183Z,15.26
2022-09-25T16:20:18.039Z,15.28
2022-09-25T16:22:49.593Z,15.18
2022-09-25T16:25:21.992Z,14.95
2022-09-25T16:27:48.622Z,15.05
2022-09-25T16:30:19.622Z,15.06
2022-09-25T16:32:51.238Z,15.19
2022-09-25T16:35:27.096Z,15.35
2022-09-25T16:37:54.279Z,15.45
2022-09-25T16:40:24.695Z,15.72
2022-09-25T16:42:53.043Z,15.20
2022-09-25T16:45:25.851Z,14.93
2022-09-25T16:47:52.375Z,14.97
2022-09-25T16:50:19.915Z,14.94
2022-09-25T16:52:46.824Z,14.97
2022-09-25T16:55:19.489Z,15.02
2022-09-25T16:57:46.369Z,15.06
2022-09-25T17:00:15.052Z,15.18
2022-09-25T17:02:43.040Z,15.14
2022-09-25T17:05:17.561Z,14.98
2022-09-25T17:07:48.063Z,15.09
2022-09-25T17:10:18.387Z,15.20
2022-09-25T17:12:49.900Z,15.09
2022-09-25T17:15:23.707Z,15.21
2022-09-25T17:17:54.260Z,15.27
2022-09-25T17:20:24.471Z,15.07
2022-09-25T17:22:51.898Z,15.09
2022-09-25T17:25:22.134Z,15.23
2022-09-25T17:27:48.632Z,15.17
2022-09-25T17:30:15.326Z,15.24
2022-09-25T17:32:44.820Z,15.00
2022-09-25T17:35:33.800Z,14.90
2022-09-25T17:38:01.387Z,15.09
2022-09-25T17:40:28.659Z,15.17
2022-09-25T17:42:55.190Z,15.23
2022-09-25T17:45:36.880Z,15.18
2022-09-25T17:48:03.647Z,15.17
2022-09-25T17:50:31.487Z,15.28
2022-09-25T17:52:58.880Z,15.35
2022-09-25T17:55:25.385Z,15.30
2022-09-25T17:57:51.828Z,15.22
2022-09-25T18:00:18.418Z,15.17
2022-09-25T18:02:45.057Z,15.15
2022-09-25T18:05:14.008Z,15.07
2022-09-25T18:07:40.503Z,15.16
2022-09-25T18:10:07.450Z,15.32
2022-09-25T18:12:34.205Z,15.25
2022-09-25T18:15:00.785Z,15.34
2022-09-25T18:17:27.269Z,15.41
2022-09-25T18:20:12.309Z,15.41
2022-09-25T18:22:38.705Z,15.18
2022-09-25T18:25:06.930Z,15.28
2022-09-25T18:27:34.148Z,15.28
2022-09-25T18:30:00.932Z,15.04
2022-09-25T18:32:27.557Z,14.64
2022-09-25T18:34:54.003Z,14.60
2022-09-25T18:37:20.662Z,14.37
2022-09-25T18:39:48.012Z,14.25
2022-09-25T18:42:14.544Z,14.38
2022-09-25T18:44:42.922Z,14.46
2022-09-25T18:47:10.085Z,14.37
2022-09-25T18:49:37.894Z,14.40
2022-09-25T18:52:04.341Z,14.53
2022-09-25T18:54:30.903Z,14.39
2022-09-25T18:56:58.620Z,14.35
2022-09-25T18:59:26.453Z,14.53
2022-09-25T19:01:54.503Z,14.38
2022-09-25T19:04:21.609Z,14.41
2022-09-25T19:06:48.477Z,14.53
2022-09-25T19:09:17.089Z,14.61
2022-09-25T19:11:44.418Z,14.65
2022-09-25T19:14:11.190Z,14.52
2022-09-25T19:16:38.718Z,14.55
2022-09-25T19:19:05.397Z,14.61
2022-09-25T19:21:32.917Z,14.74
2022-09-25T19:23:59.342Z,14.83
2022-09-25T19:26:25.985Z,14.69
2022-09-25T19:28:53.063Z,14.80
2022-09-25T19:31:20.915Z,14.81
2022-09-25T19:33:47.896Z,14.81
2022-09-25T19:36:24.760Z,14.59
2022-09-25T19:38:51.358Z,14.73
2022-09-25T19:41:19.593Z,14.85
2022-09-25T19:43:46.049Z,14.73
2022-09-25T19:46:14.707Z,14.67
2022-09-25T19:48:41.295Z,14.58
2022-09-25T19:51:08.223Z,14.78
2022-09-25T19:53:35.506Z,14.72
2022-09-25T19:56:02.622Z,14.62
2022-09-25T19:58:29.617Z,14.58
2022-09-25T20:00:56.905Z,14.60
2022-09-25T20:03:23.646Z,14.56
2022-09-25T20:05:50.246Z,14.60
2022-09-25T20:08:16.684Z,14.69
2022-09-25T20:10:43.185Z,14.70
2022-09-25T20:13:13.420Z,14.64
2022-09-25T20:15:41.471Z,14.55
2022-09-25T20:18:08.152Z,14.56
2022-09-25T20:20:34.646Z,14.62
2022-09-25T20:23:01.114Z,14.63
2022-09-25T20:25:28.073Z,14.56
2022-09-25T20:27:54.775Z,14.67
2022-09-25T20:30:21.879Z,14.80
2022-09-25T20:32:48.339Z,14.91
2022-09-25T20:35:14.967Z,15.29
2022-09-25T20:37:43.794Z,14.61
2022-09-25T20:40:10.343Z,14.39
2022-09-25T20:42:36.822Z,14.49
2022-09-25T20:45:03.612Z,14.57
2022-09-25T20:47:33.660Z,14.54
2022-09-25T20:50:00.414Z,14.49
2022-09-25T20:52:27.576Z,14.37
2022-09-25T20:54:54.078Z,14.20
2022-09-25T20:57:20.519Z,14.24
2022-09-25T20:59:46.986Z,14.37
2022-09-25T21:02:13.819Z,14.30
2022-09-25T21:04:40.306Z,14.13
2022-09-25T21:07:06.790Z,14.20
2022-09-25T21:09:33.320Z,14.20
2022-09-25T21:11:59.921Z,14.20
2022-09-25T21:14:27.937Z,14.06
2022-09-25T21:16:56.334Z,14.15
2022-09-25T21:19:23.582Z,14.13
2022-09-25T21:21:50.224Z,14.14
2022-09-25T21:24:17.923Z,14.13
2022-09-25T21:26:45.166Z,14.06
2022-09-25T21:29:12.408Z,13.99
2022-09-25T21:31:41.788Z,14.16
2022-09-25T21:34:12.794Z,14.24
2022-09-25T21:36:39.578Z,14.30
2022-09-25T21:39:06.223Z,14.02
2022-09-25T21:41:33.021Z,14.01
2022-09-25T21:44:00.459Z,14.14
2022-09-25T21:46:27.982Z,14.03
2022-09-25T21:48:54.456Z,13.95
2022-09-25T21:51:22.164Z,14.02
2022-09-25T21:53:48.945Z,13.94
2022-09-25T21:56:19.645Z,13.91
2022-09-25T21:58:46.847Z,13.91
2022-09-25T22:01:15.151Z,13.96
2022-09-25T22:03:42.794Z,14.02
2022-09-25T22:06:13.918Z,14.07
2022-09-25T22:08:41.598Z,13.96
2022-09-25T22:11:08.743Z,13.93
2022-09-25T22:13:36.547Z,13.89
2022-09-25T22:16:05.121Z,13.87
2022-09-25T22:18:32.538Z,13.91
2022-09-25T22:20:59.031Z,14.15
2022-09-25T22:23:25.759Z,14.15
2022-09-25T22:25:52.632Z,14.13
2022-09-25T22:28:20.099Z,14.04
2022-09-25T22:30:47.175Z,13.84
2022-09-25T22:33:13.633Z,13.79
2022-09-25T22:35:40.111Z,13.85
2022-09-25T22:38:06.529Z,13.68
2022-09-25T22:40:35.602Z,13.73
2022-09-25T22:43:02.217Z,13.72
2022-09-25T22:45:29.304Z,13.85
2022-09-25T22:47:57.407Z,13.91
2022-09-25T22:50:23.829Z,13.90
2022-09-25T22:52:50.278Z,13.83
2022-09-25T22:55:16.754Z,13.83
2022-09-25T22:57:43.167Z,13.83
2022-09-25T23:00:10.395Z,13.81
2022-09-25T23:02:36.917Z,13.74
2022-09-25T23:05:06.579Z,13.67
2022-09-25T23:07:33.333Z,13.72
2022-09-25T23:09:59.759Z,13.79
2022-09-25T23:12:30.536Z,13.68
2022-09-25T23:14:57.313Z,13.52
2022-09-25T23:17:23.795Z,13.52
2022-09-25T23:19:50.214Z,13.52
2022-09-25T23:22:16.752Z,13.41
2022-09-25T23:24:43.339Z,13.45
2022-09-25T23:27:09.871Z,13.41
2022-09-25T23:29:36.519Z,13.39
2022-09-25T23:32:04.682Z,13.27
2022-09-25T23:34:31.142Z,13.28
2022-09-25T23:36:57.544Z,13.17
2022-09-25T23:39:24.287Z,13.34
2022-09-25T23:41:50.735Z,13.37
2022-09-25T23:44:17.479Z,13.18
2022-09-25T23:46:44.394Z,13.17
2022-09-25T23:49:10.900Z,13.17
2022-09-25T23:51:37.708Z,13.29
2022-09-25T23:54:04.397Z,13.35
2022-09-25T23:56:32.013Z,13.40
2022-09-25T23:59:00.485Z,13.46
